createdAt,value
2019-01-08T00:02:16.973Z,15.37
2019-01-08T00:04:46.124Z,14.93
2019-01-08T00:07:17.612Z,15.50
2019-01-08T00:09:46.913Z,15.47
2019-01-08T00:12:16.063Z,14.77
2019-01-08T00:14:45.216Z,14.27
2019-01-08T00:17:14.732Z,12.33
2019-01-08T00:19:44.236Z,13.93
2019-01-08T00:22:14.125Z,15.20
2019-01-08T00:24:43.332Z,13.73
2019-01-08T00:27:12.529Z,15.40
2019-01-08T00:29:42.070Z,15.63
2019-01-08T00:32:11.298Z,14.60
2019-01-08T00:34:40.445Z,15.43
2019-01-08T00:37:09.859Z,13.50
2019-01-08T00:39:39.055Z,15.97
2019-01-08T00:42:08.205Z,16.00
2019-01-08T00:44:37.728Z,14.17
2019-01-08T00:47:07.461Z,14.70
2019-01-08T00:49:36.625Z,15.83
2019-01-08T00:52:05.753Z,15.77
2019-01-08T00:54:34.938Z,15.93
2019-01-08T00:57:04.075Z,13.87
2019-01-08T00:59:33.246Z,14.03
2019-01-08T01:02:02.445Z,13.20
2019-01-08T01:04:31.615Z,13.37
2019-01-08T01:07:01.080Z,13.00
2019-01-08T01:09:30.515Z,12.17
2019-01-08T01:11:59.934Z,12.13
2019-01-08T01:14:29.379Z,12.10
2019-01-08T01:16:58.778Z,10.03
2019-01-08T01:19:27.946Z,11.83
2019-01-08T01:21:57.396Z,11.27
2019-01-08T01:24:26.661Z,12.67
2019-01-08T01:26:56.080Z,10.20
2019-01-08T01:29:25.220Z,11.33
2019-01-08T01:31:54.656Z,11.33
2019-01-08T01:34:23.889Z,9.97
2019-01-08T01:36:53.318Z,11.30
2019-01-08T01:39:22.444Z,10.70
2019-01-08T01:41:51.609Z,11.47
2019-01-08T01:44:20.744Z,12.13
2019-01-08T01:46:50.007Z,12.03
2019-01-08T01:49:19.167Z,11.33
2019-01-08T01:51:48.337Z,10.10
2019-01-08T01:54:17.934Z,11.03
2019-01-08T01:56:47.929Z,11.07
2019-01-08T01:59:17.358Z,11.07
2019-01-08T02:01:46.606Z,10.53
2019-01-08T02:04:15.864Z,12.53
2019-01-08T02:06:45.103Z,11.20
2019-01-08T02:09:14.539Z,13.23
2019-01-08T02:11:43.805Z,12.33
2019-01-08T02:14:13.030Z,12.37
2019-01-08T02:16:42.280Z,12.43
2019-01-08T02:19:11.850Z,12.40
2019-01-08T02:21:41.189Z,12.00
2019-01-08T02:24:10.422Z,12.67
2019-01-08T02:26:39.786Z,11.27
2019-01-08T02:29:16.305Z,11.57
2019-01-08T02:31:39.999Z,10.57
2019-01-08T02:34:09.229Z,11.00
2019-01-08T02:36:38.429Z,11.07
2019-01-08T02:39:08.027Z,10.67
2019-01-08T02:41:37.187Z,11.13
2019-01-08T02:44:06.729Z,9.60
2019-01-08T02:46:36.001Z,11.20
2019-01-08T02:49:05.419Z,9.90
2019-01-08T02:51:35.007Z,10.50
2019-01-08T02:54:04.589Z,10.57
2019-01-08T02:56:33.955Z,9.33
2019-01-08T02:59:03.128Z,10.07
2019-01-08T03:01:32.404Z,8.87
2019-01-08T03:04:01.605Z,8.43
2019-01-08T03:06:30.793Z,7.27
2019-01-08T03:09:00.025Z,4.37
2019-01-08T03:11:29.200Z,3.73
2019-01-08T03:13:58.469Z,3.00
2019-01-08T03:16:27.627Z,3.10
2019-01-08T03:18:57.260Z,3.30
2019-01-08T03:21:26.814Z,3.37
2019-01-08T03:23:56.235Z,2.93
2019-01-08T03:26:25.453Z,3.13
2019-01-08T03:28:54.713Z,3.13
2019-01-08T03:31:23.957Z,3.20
2019-01-08T03:33:53.270Z,3.10
2019-01-08T03:36:24.812Z,3.10
2019-01-08T03:38:54.017Z,3.17
2019-01-08T03:41:23.530Z,3.10
2019-01-08T03:43:52.685Z,3.13
2019-01-08T03:46:21.853Z,2.87
2019-01-08T03:48:51.534Z,3.10
2019-01-08T03:51:20.947Z,3.57
2019-01-08T03:53:50.194Z,3.27
2019-01-08T03:56:19.417Z,3.60
2019-01-08T03:58:48.597Z,3.53
2019-01-08T04:01:17.774Z,3.90
2019-01-08T04:03:46.937Z,3.73
2019-01-08T04:06:16.340Z,3.83
2019-01-08T04:08:45.526Z,3.80
2019-01-08T04:11:14.688Z,4.50
2019-01-08T04:13:44.183Z,3.77
2019-01-08T04:16:13.525Z,3.77
2019-01-08T04:18:43.086Z,4.33
2019-01-08T04:21:12.807Z,3.40
2019-01-08T04:23:41.962Z,4.40
2019-01-08T04:26:11.469Z,4.10
2019-01-08T04:28:40.724Z,4.43
2019-01-08T04:31:10.161Z,4.77
2019-01-08T04:33:39.409Z,4.67
2019-01-08T04:36:08.659Z,4.43
2019-01-08T04:38:38.450Z,4.70
2019-01-08T04:41:08.059Z,4.50
2019-01-08T04:43:37.557Z,4.87
2019-01-08T04:46:06.727Z,4.97
2019-01-08T04:48:35.885Z,4.50
2019-01-08T04:51:05.065Z,4.93
2019-01-08T04:53:34.331Z,4.50
2019-01-08T04:56:03.597Z,5.47
2019-01-08T04:58:32.970Z,4.57
2019-01-08T05:01:02.606Z,5.93
2019-01-08T05:03:31.972Z,6.50
2019-01-08T05:06:01.222Z,5.90
2019-01-08T05:08:30.783Z,5.50
2019-01-08T05:11:00.325Z,5.17
2019-01-08T05:13:29.571Z,4.20
2019-01-08T05:15:58.859Z,5.03
2019-01-08T05:18:28.013Z,6.10
2019-01-08T05:20:57.261Z,5.00
2019-01-08T05:23:26.524Z,5.40
2019-01-08T05:25:55.773Z,5.30
2019-01-08T05:28:25.020Z,6.07
2019-01-08T05:30:54.685Z,5.10
2019-01-08T05:33:23.950Z,4.90
2019-01-08T05:35:53.231Z,6.07
2019-01-08T05:38:22.484Z,6.40
2019-01-08T05:40:51.746Z,5.37
2019-01-08T05:43:21.027Z,5.87
2019-01-08T05:45:50.876Z,5.90
2019-01-08T05:48:20.138Z,6.03
2019-01-08T05:50:49.386Z,6.73
2019-01-08T05:53:19.035Z,6.17
2019-01-08T05:55:48.289Z,5.63
2019-01-08T05:58:17.486Z,5.87
2019-01-08T06:00:46.730Z,5.53
2019-01-08T06:03:16.005Z,6.20
2019-01-08T06:05:45.337Z,6.57
2019-01-08T06:08:14.637Z,6.77
2019-01-08T06:10:43.976Z,5.97
2019-01-08T06:13:13.265Z,6.40
2019-01-08T06:15:42.562Z,6.63
2019-01-08T06:18:12.264Z,6.47
2019-01-08T06:20:41.862Z,6.73
2019-01-08T06:23:11.146Z,6.83
2019-01-08T06:25:40.410Z,6.67
2019-01-08T06:28:09.712Z,7.23
2019-01-08T06:30:38.990Z,6.47
2019-01-08T06:33:08.306Z,6.53
2019-01-08T06:35:37.594Z,6.60
2019-01-08T06:38:06.902Z,6.03
2019-01-08T06:40:36.226Z,6.80
2019-01-08T06:43:06.265Z,7.50
2019-01-08T06:45:35.498Z,6.93
2019-01-08T06:48:07.079Z,5.77
2019-01-08T06:50:36.397Z,6.00
2019-01-08T06:53:05.694Z,6.77
2019-01-08T06:55:35.018Z,8.00
2019-01-08T06:58:04.681Z,7.07
2019-01-08T07:00:34.345Z,8.07
2019-01-08T07:03:03.681Z,8.13
2019-01-08T07:05:33.119Z,6.30
2019-01-08T07:08:02.411Z,6.60
2019-01-08T07:10:31.685Z,6.20
2019-01-08T07:13:00.926Z,6.73
2019-01-08T07:15:30.490Z,6.13
2019-01-08T07:17:59.713Z,6.70
2019-01-08T07:20:29.104Z,6.27
2019-01-08T07:22:58.685Z,6.60
2019-01-08T07:25:28.127Z,6.27
2019-01-08T07:27:57.354Z,6.00
2019-01-08T07:30:26.619Z,6.53
2019-01-08T07:32:55.996Z,6.43
2019-01-08T07:35:25.357Z,6.50
2019-01-08T07:37:54.703Z,5.57
2019-01-08T07:40:24.096Z,5.37
2019-01-08T07:42:53.445Z,5.40
2019-01-08T07:45:22.742Z,5.43
2019-01-08T07:47:52.053Z,6.23
2019-01-08T07:50:21.468Z,5.93
2019-01-08T07:52:50.972Z,5.43
2019-01-08T07:55:20.739Z,6.70
2019-01-08T07:57:50.102Z,5.57
2019-01-08T08:00:19.626Z,6.10
2019-01-08T08:02:49.746Z,4.53
2019-01-08T08:05:19.356Z,5.80
2019-01-08T08:07:48.688Z,5.70
2019-01-08T08:10:17.893Z,5.73
2019-01-08T08:12:48.150Z,4.47
2019-01-08T08:15:17.850Z,3.57
2019-01-08T08:17:47.241Z,3.10
2019-01-08T08:20:16.691Z,2.80
2019-01-08T08:22:46.213Z,2.40
2019-01-08T08:25:15.445Z,2.40
2019-01-08T08:27:44.969Z,2.47
2019-01-08T08:30:14.637Z,2.20
2019-01-08T08:32:43.989Z,2.00
2019-01-08T08:35:13.261Z,2.87
2019-01-08T08:37:42.861Z,1.90
2019-01-08T08:40:12.389Z,2.40
2019-01-08T08:42:41.637Z,2.10
2019-01-08T08:45:10.905Z,1.87
2019-01-08T08:47:40.187Z,2.10
2019-01-08T08:50:09.737Z,2.50
2019-01-08T08:52:39.016Z,2.20
2019-01-08T08:55:08.521Z,1.80
2019-01-08T08:57:38.185Z,2.40
2019-01-08T09:00:09.395Z,1.97
2019-01-08T09:02:39.056Z,3.07
2019-01-08T09:05:08.630Z,2.07
2019-01-08T09:07:38.053Z,1.70
2019-01-08T09:10:07.658Z,2.80
2019-01-08T09:12:36.933Z,2.00
2019-01-08T09:15:06.237Z,1.90
2019-01-08T09:17:35.466Z,2.00
2019-01-08T09:20:05.350Z,2.10
2019-01-08T09:22:34.668Z,2.03
2019-01-08T09:25:04.274Z,1.90
2019-01-08T09:27:33.767Z,1.90
2019-01-08T09:30:03.070Z,2.30
2019-01-08T09:32:32.593Z,1.70
2019-01-08T09:35:01.939Z,2.20
2019-01-08T09:37:31.268Z,1.53
2019-01-08T09:40:00.605Z,1.90
2019-01-08T09:42:30.153Z,2.03
2019-01-08T09:44:59.509Z,1.80
2019-01-08T09:47:28.926Z,1.47
2019-01-08T09:49:58.158Z,1.80
2019-01-08T09:52:27.521Z,1.50
2019-01-08T09:54:56.782Z,1.77
2019-01-08T09:57:26.193Z,1.50
2019-01-08T09:59:55.438Z,1.73
2019-01-08T10:02:24.847Z,1.53
2019-01-08T10:04:54.126Z,1.40
2019-01-08T10:07:23.425Z,1.37
2019-01-08T10:09:52.815Z,1.83
2019-01-08T10:12:21.968Z,1.47
2019-01-08T10:14:51.214Z,1.90
2019-01-08T10:17:20.930Z,1.07
2019-01-08T10:19:50.215Z,1.23
2019-01-08T10:22:19.752Z,1.60
2019-01-08T10:24:49.068Z,1.90
2019-01-08T10:27:18.415Z,2.07
2019-01-08T10:29:47.780Z,1.90
2019-01-08T10:32:17.034Z,1.40
2019-01-08T10:34:46.344Z,1.60
2019-01-08T10:37:15.609Z,1.57
2019-01-08T10:39:44.945Z,1.20
2019-01-08T10:42:14.261Z,1.73
2019-01-08T10:44:43.564Z,1.60
2019-01-08T10:47:13.216Z,1.27
2019-01-08T10:49:42.590Z,2.30
2019-01-08T10:52:11.849Z,1.80
2019-01-08T10:54:41.138Z,1.80
2019-01-08T10:57:11.742Z,1.30
2019-01-08T10:59:41.930Z,1.17
2019-01-08T11:02:11.204Z,1.40
2019-01-08T11:04:40.397Z,1.20
2019-01-08T11:07:09.619Z,2.00
2019-01-08T11:09:39.031Z,1.57
2019-01-08T11:12:08.405Z,2.20
2019-01-08T11:14:37.790Z,2.47
2019-01-08T11:17:07.041Z,1.90
2019-01-08T11:19:36.348Z,1.40
2019-01-08T11:22:05.551Z,1.90
2019-01-08T11:24:34.726Z,2.03
2019-01-08T11:27:03.974Z,1.70
2019-01-08T11:29:33.486Z,1.80
2019-01-08T11:32:02.895Z,1.40
2019-01-08T11:34:32.353Z,2.00
2019-01-08T11:37:02.214Z,1.63
2019-01-08T11:39:31.508Z,1.93
2019-01-08T11:42:00.935Z,1.67
2019-01-08T11:44:30.185Z,1.97
2019-01-08T11:46:59.726Z,1.77
2019-01-08T11:49:29.583Z,1.60
2019-01-08T11:51:58.901Z,1.40
2019-01-08T11:54:28.501Z,2.00
2019-01-08T11:56:57.833Z,1.43
2019-01-08T11:59:27.046Z,1.80
2019-01-08T12:01:57.470Z,1.83
2019-01-08T12:04:27.310Z,1.67
2019-01-08T12:06:56.691Z,1.77
2019-01-08T12:09:26.044Z,2.20
2019-01-08T12:11:55.355Z,1.93
2019-01-08T12:14:24.979Z,1.67
2019-01-08T12:16:54.461Z,1.90
2019-01-08T12:19:24.066Z,1.60
2019-01-08T12:21:53.422Z,1.10
2019-01-08T12:24:22.764Z,1.40
2019-01-08T12:26:52.341Z,1.60
2019-01-08T12:29:21.873Z,1.63
2019-01-08T12:31:51.546Z,1.20
2019-01-08T12:34:20.952Z,1.43
2019-01-08T12:36:50.279Z,1.90
2019-01-08T12:39:19.613Z,1.37
2019-01-08T12:41:48.940Z,2.03
2019-01-08T12:44:18.434Z,1.40
2019-01-08T12:46:47.645Z,1.47
2019-01-08T12:49:16.872Z,1.80
2019-01-08T12:51:46.114Z,1.60
2019-01-08T12:54:15.462Z,1.60
2019-01-08T12:56:44.786Z,2.10
2019-01-08T12:59:14.037Z,2.10
2019-01-08T13:01:43.511Z,1.80
2019-01-08T13:04:12.753Z,2.17
2019-01-08T13:06:43.644Z,2.20
2019-01-08T13:09:13.199Z,1.90
2019-01-08T13:11:42.501Z,2.50
2019-01-08T13:14:11.701Z,1.70
2019-01-08T13:16:40.981Z,1.73
2019-01-08T13:19:10.288Z,1.27
2019-01-08T13:21:39.586Z,2.07
2019-01-08T13:24:08.895Z,1.80
2019-01-08T13:26:38.149Z,1.57
2019-01-08T13:29:07.750Z,1.60
2019-01-08T13:31:37.313Z,1.60
2019-01-08T13:34:07.809Z,2.00
2019-01-08T13:36:37.273Z,1.80
2019-01-08T13:39:07.757Z,2.10
2019-01-08T13:41:37.273Z,1.50
2019-01-08T13:44:06.633Z,1.87
2019-01-08T13:46:35.794Z,1.50
2019-01-08T13:49:04.982Z,1.37
2019-01-08T13:51:34.173Z,1.13
2019-01-08T13:54:03.372Z,1.80
2019-01-08T13:56:32.626Z,1.50
2019-01-08T13:59:01.985Z,1.60
2019-01-08T14:01:31.186Z,1.50
2019-01-08T14:04:00.461Z,1.43
2019-01-08T14:06:29.703Z,1.50
2019-01-08T14:08:59.326Z,1.50
2019-01-08T14:11:28.600Z,1.77
2019-01-08T14:13:57.903Z,1.50
2019-01-08T14:16:27.259Z,1.60
2019-01-08T14:18:56.520Z,1.60
2019-01-08T14:21:25.752Z,1.60
2019-01-08T14:23:55.004Z,1.30
2019-01-08T14:26:24.525Z,1.83
2019-01-08T14:28:53.878Z,1.50
2019-01-08T14:31:23.126Z,1.73
2019-01-08T14:33:52.722Z,1.23
2019-01-08T14:36:22.298Z,1.50
2019-01-08T14:38:51.572Z,1.10
2019-01-08T14:41:20.720Z,1.70
2019-01-08T14:43:49.977Z,1.20
2019-01-08T14:46:19.266Z,0.90
2019-01-08T14:48:48.433Z,1.23
2019-01-08T14:51:17.597Z,1.30
2019-01-08T14:53:46.861Z,1.60
2019-01-08T14:56:16.217Z,1.13
2019-01-08T14:58:45.742Z,1.20
2019-01-08T15:01:15.030Z,1.40
2019-01-08T15:03:44.229Z,1.47
2019-01-08T15:06:13.437Z,1.07
2019-01-08T15:08:42.704Z,1.30
2019-01-08T15:11:12.006Z,1.00
2019-01-08T15:13:41.253Z,1.43
2019-01-08T15:16:10.773Z,1.53
2019-01-08T15:18:40.062Z,1.60
2019-01-08T15:21:09.433Z,0.97
2019-01-08T15:23:38.910Z,1.50
2019-01-08T15:26:08.125Z,1.50
2019-01-08T15:28:37.404Z,1.10
2019-01-08T15:31:06.999Z,1.13
2019-01-08T15:33:36.289Z,1.20
2019-01-08T15:36:05.557Z,1.30
2019-01-08T15:38:34.713Z,1.30
2019-01-08T15:41:04.244Z,1.00
2019-01-08T15:43:33.483Z,1.10
2019-01-08T15:46:03.079Z,1.37
2019-01-08T15:48:32.489Z,1.50
2019-01-08T15:51:02.115Z,1.20
2019-01-08T15:53:31.424Z,0.97
2019-01-08T15:56:00.970Z,1.30
2019-01-08T15:58:30.306Z,0.80
2019-01-08T16:00:59.881Z,1.53
2019-01-08T16:03:30.586Z,0.97
2019-01-08T16:05:59.768Z,1.30
2019-01-08T16:08:29.433Z,0.90
2019-01-08T16:10:58.826Z,1.07
2019-01-08T16:13:28.055Z,1.30
2019-01-08T16:15:57.681Z,1.23
2019-01-08T16:18:27.053Z,1.40
2019-01-08T16:20:56.281Z,1.60
2019-01-08T16:23:25.541Z,1.27
2019-01-08T16:25:54.746Z,1.33
2019-01-08T16:28:24.005Z,1.47
2019-01-08T16:30:53.290Z,1.37
2019-01-08T16:33:22.612Z,1.13
2019-01-08T16:35:52.221Z,1.13
2019-01-08T16:38:21.470Z,1.27
2019-01-08T16:40:50.721Z,1.23
2019-01-08T16:43:19.914Z,1.30
2019-01-08T16:45:49.064Z,1.27
2019-01-08T16:48:18.395Z,1.47
2019-01-08T16:50:47.982Z,1.30
2019-01-08T16:53:17.510Z,1.50
2019-01-08T16:55:47.997Z,1.60
2019-01-08T16:58:19.098Z,1.57
2019-01-08T17:03:28.727Z,1.53
2019-01-08T17:05:58.113Z,1.40
2019-01-08T17:08:27.662Z,1.17
2019-01-08T17:10:56.974Z,1.07
2019-01-08T17:13:26.347Z,1.27
2019-01-08T17:15:55.677Z,1.17
2019-01-08T17:18:25.037Z,1.17
2019-01-08T17:20:54.458Z,1.60
2019-01-08T17:23:23.790Z,1.60
2019-01-08T17:25:53.192Z,1.60
2019-01-08T17:28:22.704Z,1.70
2019-01-08T17:30:52.062Z,1.73
2019-01-08T17:33:21.271Z,1.83
2019-01-08T17:35:50.687Z,1.73
2019-01-08T17:38:20.076Z,1.60
2019-01-08T17:40:49.439Z,1.50
2019-01-08T17:43:18.882Z,1.20
2019-01-08T17:45:48.142Z,1.20
2019-01-08T17:48:17.614Z,1.10
2019-01-08T17:50:46.967Z,1.17
2019-01-08T17:53:17.262Z,1.53
2019-01-08T17:55:46.760Z,1.27
2019-01-08T17:58:39.734Z,1.40
2019-01-08T18:01:12.176Z,1.30
2019-01-08T18:03:42.776Z,1.40
2019-01-08T18:06:12.409Z,1.10
2019-01-08T18:08:41.758Z,1.10
2019-01-08T18:11:11.324Z,1.77
2019-01-08T18:13:41.033Z,1.23
2019-01-08T18:16:10.343Z,1.77
2019-01-08T18:18:40.211Z,1.50
2019-01-08T18:21:09.781Z,1.40
2019-01-08T18:23:39.062Z,1.07
2019-01-08T18:26:08.622Z,1.30
2019-01-08T18:28:38.068Z,1.33
2019-01-08T18:31:07.610Z,1.13
2019-01-08T18:33:37.141Z,1.20
2019-01-08T18:36:06.967Z,1.30
2019-01-08T18:38:36.238Z,1.37
2019-01-08T18:41:05.544Z,1.70
2019-01-08T18:43:35.013Z,1.60
2019-01-08T18:46:04.275Z,1.57
2019-01-08T18:48:33.634Z,1.30
2019-01-08T18:51:02.828Z,1.53
2019-01-08T18:53:32.732Z,1.23
2019-01-08T18:56:02.272Z,1.83
2019-01-08T18:58:31.607Z,1.50
2019-01-08T19:01:01.001Z,1.20
2019-01-08T19:03:30.222Z,1.07
2019-01-08T19:05:59.507Z,1.23
2019-01-08T19:09:05.272Z,1.50
2019-01-08T19:11:34.618Z,1.50
2019-01-08T19:14:03.964Z,1.47
2019-01-08T19:16:33.327Z,1.40
2019-01-08T19:19:02.794Z,1.40
2019-01-08T19:21:32.179Z,1.73
2019-01-08T19:24:01.465Z,2.03
2019-01-08T19:26:31.094Z,1.97
2019-01-08T19:29:00.545Z,1.57
2019-01-08T19:31:29.841Z,1.70
2019-01-08T19:33:59.095Z,1.30
2019-01-08T19:36:28.417Z,1.50
2019-01-08T19:38:57.724Z,1.77
2019-01-08T19:41:28.079Z,1.97
2019-01-08T19:43:57.676Z,1.87
2019-01-08T19:46:26.911Z,1.23
2019-01-08T19:48:56.517Z,1.33
2019-01-08T19:51:28.916Z,1.40
2019-01-08T19:53:58.480Z,1.23
2019-01-08T19:56:28.029Z,1.13
2019-01-08T19:58:57.300Z,1.70
2019-01-08T20:01:26.994Z,1.27
2019-01-08T20:03:56.558Z,1.43
2019-01-08T20:06:26.088Z,1.30
2019-01-08T20:08:55.322Z,1.53
2019-01-08T20:11:24.787Z,1.43
2019-01-08T20:13:54.155Z,1.23
2019-01-08T20:16:23.704Z,1.37
2019-01-08T20:18:53.056Z,1.23
2019-01-08T20:21:23.391Z,1.53
2019-01-08T20:23:52.759Z,0.80
2019-01-08T20:26:22.171Z,1.37
2019-01-08T20:28:51.425Z,1.50
2019-01-08T20:31:20.635Z,1.20
2019-01-08T20:33:50.230Z,1.43
2019-01-08T20:36:19.446Z,1.30
2019-01-08T20:38:48.681Z,1.07
2019-01-08T20:41:18.467Z,1.33
2019-01-08T20:43:47.693Z,1.30
2019-01-08T20:46:16.925Z,1.30
2019-01-08T20:48:46.523Z,1.50
2019-01-08T20:51:15.860Z,1.33
2019-01-08T20:53:45.415Z,1.40
2019-01-08T20:56:15.062Z,1.27
2019-01-08T20:58:44.991Z,0.90
2019-01-08T21:01:14.306Z,0.97
2019-01-08T21:03:43.580Z,1.00
2019-01-08T21:06:13.445Z,1.30
2019-01-08T21:08:42.994Z,1.13
2019-01-08T21:11:12.176Z,1.00
2019-01-08T21:13:41.416Z,1.47
2019-01-08T21:16:10.738Z,1.50
2019-01-08T21:18:40.021Z,0.90
2019-01-08T21:21:09.277Z,1.40
2019-01-08T21:23:38.638Z,1.47
2019-01-08T21:26:08.143Z,0.90
2019-01-08T21:28:37.499Z,1.70
2019-01-08T21:31:06.959Z,1.60
2019-01-08T21:33:36.270Z,2.70
2019-01-08T21:36:05.574Z,1.33
2019-01-08T21:38:34.861Z,2.00
2019-01-08T21:41:04.181Z,1.43
2019-01-08T21:43:33.385Z,1.60
2019-01-08T21:46:03.083Z,1.60
2019-01-08T21:48:32.350Z,1.13
2019-01-08T21:51:01.890Z,1.20
2019-01-08T21:53:32.509Z,1.27
2019-01-08T21:56:02.234Z,1.40
2019-01-08T21:58:31.762Z,1.33
2019-01-08T22:01:01.499Z,1.17
2019-01-08T22:03:30.962Z,1.43
2019-01-08T22:06:00.628Z,1.50
2019-01-08T22:08:29.894Z,1.33
2019-01-08T22:10:59.333Z,1.03
2019-01-08T22:13:29.643Z,1.33
2019-01-08T22:15:59.186Z,1.30
2019-01-08T22:18:28.513Z,1.40
2019-01-08T22:20:57.794Z,1.50
2019-01-08T22:23:27.309Z,1.23
2019-01-08T22:25:56.917Z,1.63
2019-01-08T22:28:26.453Z,1.30
2019-01-08T22:30:56.145Z,1.13
2019-01-08T22:33:25.674Z,0.77
2019-01-08T22:35:55.308Z,1.00
2019-01-08T22:38:24.576Z,1.00
2019-01-08T22:40:54.283Z,1.60
2019-01-08T22:43:24.150Z,1.10
2019-01-08T22:45:53.430Z,1.23
2019-01-08T22:48:22.961Z,1.70
2019-01-08T22:50:52.734Z,1.20
2019-01-08T22:53:22.385Z,1.20
2019-01-08T22:55:52.193Z,1.23
2019-01-08T22:58:21.561Z,1.40
2019-01-08T23:03:40.715Z,1.93
2019-01-08T23:06:10.430Z,1.23
2019-01-08T23:08:39.744Z,1.40
2019-01-08T23:11:09.059Z,1.50
2019-01-08T23:13:38.603Z,1.00
2019-01-08T23:16:07.902Z,1.20
2019-01-08T23:18:37.228Z,1.43
2019-01-08T23:21:06.919Z,1.60
2019-01-08T23:23:36.153Z,1.20
2019-01-08T23:26:05.799Z,1.40
2019-01-08T23:28:34.990Z,0.60
2019-01-08T23:31:04.189Z,0.77
2019-01-08T23:33:33.697Z,1.23
2019-01-08T23:36:02.943Z,1.00
2019-01-08T23:38:32.205Z,0.90
2019-01-08T23:41:01.671Z,1.00
2019-01-08T23:43:30.916Z,1.03
2019-01-08T23:46:00.198Z,1.10
2019-01-08T23:48:29.495Z,1.53
2019-01-08T23:50:58.690Z,1.00
2019-01-08T23:53:32.653Z,1.50
2019-01-08T23:56:05.787Z,1.57
2019-01-08T23:58:35.055Z,1.37
